sensor_id;sensor_type;location;lat;lon;timestamp;P1;durP1;ratioP1;P2;durP2;ratioP2
61085;SDS011;46967;48.876;2.136;2023-03-31T00:01:56;16.77;;;2.67;;
61085;SDS011;46967;48.876;2.136;2023-03-31T00:04:21;11.77;;;2.50;;
61085;SDS011;46967;48.876;2.136;2023-03-31T00:06:47;11.93;;;2.13;;
61085;SDS011;46967;48.876;2.136;2023-03-31T00:09:14;16.42;;;2.72;;
61085;SDS011;46967;48.876;2.136;2023-03-31T00:11:43;14.30;;;2.40;;
61085;SDS011;46967;48.876;2.136;2023-03-31T00:14:08;15.43;;;2.42;;
61085;SDS011;46967;48.876;2.136;2023-03-31T00:16:34;14.82;;;2.30;;
61085;SDS011;46967;48.876;2.136;2023-03-31T00:19:01;16.45;;;2.83;;
61085;SDS011;46967;48.876;2.136;2023-03-31T00:21:27;16.30;;;2.22;;
61085;SDS011;46967;48.876;2.136;2023-03-31T00:24:01;19.23;;;1.90;;
61085;SDS011;46967;48.876;2.136;2023-03-31T00:26:29;13.13;;;2.97;;
61085;SDS011;46967;48.876;2.136;2023-03-31T00:28:55;16.42;;;2.45;;
61085;SDS011;46967;48.876;2.136;2023-03-31T00:31:21;12.30;;;2.00;;
61085;SDS011;46967;48.876;2.136;2023-03-31T00:33:47;12.57;;;1.60;;
61085;SDS011;46967;48.876;2.136;2023-03-31T00:36:13;13.05;;;2.05;;
61085;SDS011;46967;48.876;2.136;2023-03-31T00:38:41;15.73;;;2.38;;
61085;SDS011;46967;48.876;2.136;2023-03-31T00:41:10;12.55;;;2.20;;
61085;SDS011;46967;48.876;2.136;2023-03-31T00:43:36;12.73;;;2.10;;
61085;SDS011;46967;48.876;2.136;2023-03-31T00:48:39;12.60;;;2.20;;
61085;SDS011;46967;48.876;2.136;2023-03-31T00:51:09;13.73;;;2.10;;
61085;SDS011;46967;48.876;2.136;2023-03-31T00:53:35;10.98;;;1.98;;
61085;SDS011;46967;48.876;2.136;2023-03-31T00:56:03;10.15;;;2.15;;
61085;SDS011;46967;48.876;2.136;2023-03-31T00:58:33;13.45;;;2.22;;
61085;SDS011;46967;48.876;2.136;2023-03-31T01:00:59;8.18;;;1.67;;
61085;SDS011;46967;48.876;2.136;2023-03-31T01:03:27;10.48;;;1.80;;
61085;SDS011;46967;48.876;2.136;2023-03-31T01:05:58;7.75;;;1.83;;
61085;SDS011;46967;48.876;2.136;2023-03-31T01:08:28;6.90;;;1.85;;
61085;SDS011;46967;48.876;2.136;2023-03-31T01:10:57;8.35;;;1.73;;
61085;SDS011;46967;48.876;2.136;2023-03-31T01:13:28;6.60;;;1.85;;
61085;SDS011;46967;48.876;2.136;2023-03-31T01:15:55;10.07;;;2.20;;
61085;SDS011;46967;48.876;2.136;2023-03-31T01:18:21;7.72;;;1.40;;
61085;SDS011;46967;48.876;2.136;2023-03-31T01:42:31;9.55;;;1.80;;
61085;SDS011;46967;48.876;2.136;2023-03-31T01:47:46;5.63;;;1.63;;
61085;SDS011;46967;48.876;2.136;2023-03-31T01:50:28;8.68;;;1.85;;
61085;SDS011;46967;48.876;2.136;2023-03-31T01:55:35;6.68;;;1.83;;
61085;SDS011;46967;48.876;2.136;2023-03-31T01:58:05;6.43;;;1.50;;
61085;SDS011;46967;48.876;2.136;2023-03-31T02:00:40;10.32;;;1.90;;
61085;SDS011;46967;48.876;2.136;2023-03-31T02:03:16;10.80;;;2.58;;
61085;SDS011;46967;48.876;2.136;2023-03-31T02:05:50;7.18;;;1.50;;
61085;SDS011;46967;48.876;2.136;2023-03-31T02:08:34;10.30;;;1.70;;
61085;SDS011;46967;48.876;2.136;2023-03-31T02:11:04;7.75;;;2.00;;
61085;SDS011;46967;48.876;2.136;2023-03-31T02:13:30;9.68;;;1.70;;
61085;SDS011;46967;48.876;2.136;2023-03-31T02:15:59;7.70;;;1.48;;
61085;SDS011;46967;48.876;2.136;2023-03-31T02:18:29;8.80;;;2.03;;
61085;SDS011;46967;48.876;2.136;2023-03-31T02:20:57;10.88;;;1.60;;
61085;SDS011;46967;48.876;2.136;2023-03-31T02:23:25;10.68;;;2.00;;
61085;SDS011;46967;48.876;2.136;2023-03-31T02:26:00;10.48;;;1.98;;
61085;SDS011;46967;48.876;2.136;2023-03-31T02:28:28;14.90;;;2.53;;
61085;SDS011;46967;48.876;2.136;2023-03-31T02:30:58;10.40;;;2.38;;
61085;SDS011;46967;48.876;2.136;2023-03-31T02:33:26;10.40;;;2.00;;
61085;SDS011;46967;48.876;2.136;2023-03-31T02:35:52;11.98;;;2.50;;
61085;SDS011;46967;48.876;2.136;2023-03-31T02:38:17;13.75;;;2.30;;
61085;SDS011;46967;48.876;2.136;2023-03-31T02:40:43;8.15;;;1.92;;
61085;SDS011;46967;48.876;2.136;2023-03-31T02:43:08;8.85;;;2.30;;
61085;SDS011;46967;48.876;2.136;2023-03-31T02:48:05;12.35;;;2.30;;
61085;SDS011;46967;48.876;2.136;2023-03-31T02:50:38;14.65;;;2.17;;
61085;SDS011;46967;48.876;2.136;2023-03-31T03:09:47;9.80;;;2.08;;
61085;SDS011;46967;48.876;2.136;2023-03-31T03:12:33;13.00;;;2.38;;
61085;SDS011;46967;48.876;2.136;2023-03-31T03:17:40;15.73;;;2.47;;
61085;SDS011;46967;48.876;2.136;2023-03-31T03:20:09;11.98;;;2.45;;
61085;SDS011;46967;48.876;2.136;2023-03-31T03:22:36;12.85;;;2.90;;
61085;SDS011;46967;48.876;2.136;2023-03-31T03:25:03;15.15;;;2.65;;
61085;SDS011;46967;48.876;2.136;2023-03-31T03:27:29;13.95;;;2.60;;
61085;SDS011;46967;48.876;2.136;2023-03-31T03:29:55;17.58;;;2.25;;
61085;SDS011;46967;48.876;2.136;2023-03-31T03:32:20;17.10;;;2.88;;
61085;SDS011;46967;48.876;2.136;2023-03-31T03:34:46;13.88;;;2.75;;
61085;SDS011;46967;48.876;2.136;2023-03-31T03:37:11;13.23;;;2.60;;
61085;SDS011;46967;48.876;2.136;2023-03-31T03:39:37;11.95;;;2.22;;
61085;SDS011;46967;48.876;2.136;2023-03-31T03:42:02;16.25;;;2.67;;
61085;SDS011;46967;48.876;2.136;2023-03-31T03:44:28;17.98;;;3.03;;
61085;SDS011;46967;48.876;2.136;2023-03-31T03:46:53;18.23;;;4.07;;
61085;SDS011;46967;48.876;2.136;2023-03-31T03:49:19;15.48;;;2.53;;
61085;SDS011;46967;48.876;2.136;2023-03-31T03:51:44;12.70;;;2.60;;
61085;SDS011;46967;48.876;2.136;2023-03-31T03:54:10;12.88;;;2.90;;
61085;SDS011;46967;48.876;2.136;2023-03-31T03:56:35;13.80;;;2.85;;
61085;SDS011;46967;48.876;2.136;2023-03-31T03:59:01;13.30;;;2.40;;
61085;SDS011;46967;48.876;2.136;2023-03-31T04:01:26;16.00;;;2.90;;
61085;SDS011;46967;48.876;2.136;2023-03-31T04:03:51;11.32;;;2.40;;
61085;SDS011;46967;48.876;2.136;2023-03-31T04:06:17;11.07;;;2.60;;
61085;SDS011;46967;48.876;2.136;2023-03-31T04:08:42;13.40;;;2.80;;
61085;SDS011;46967;48.876;2.136;2023-03-31T04:11:14;12.77;;;2.72;;
61085;SDS011;46967;48.876;2.136;2023-03-31T04:13:42;12.00;;;3.03;;
61085;SDS011;46967;48.876;2.136;2023-03-31T04:16:08;17.13;;;4.15;;
61085;SDS011;46967;48.876;2.136;2023-03-31T04:18:37;11.13;;;2.53;;
61085;SDS011;46967;48.876;2.136;2023-03-31T04:21:07;19.05;;;3.50;;
61085;SDS011;46967;48.876;2.136;2023-03-31T04:23:36;21.95;;;3.88;;
61085;SDS011;46967;48.876;2.136;2023-03-31T04:26:09;16.55;;;2.42;;
61085;SDS011;46967;48.876;2.136;2023-03-31T04:28:36;16.93;;;3.23;;
61085;SDS011;46967;48.876;2.136;2023-03-31T04:31:02;21.67;;;3.05;;
61085;SDS011;46967;48.876;2.136;2023-03-31T04:33:30;19.33;;;3.35;;
61085;SDS011;46967;48.876;2.136;2023-03-31T04:36:02;22.50;;;3.17;;
61085;SDS011;46967;48.876;2.136;2023-03-31T04:38:41;19.88;;;2.90;;
61085;SDS011;46967;48.876;2.136;2023-03-31T04:41:10;22.75;;;4.28;;
61085;SDS011;46967;48.876;2.136;2023-03-31T04:43:38;21.40;;;3.22;;
61085;SDS011;46967;48.876;2.136;2023-03-31T04:46:04;23.70;;;4.15;;
61085;SDS011;46967;48.876;2.136;2023-03-31T04:48:29;18.20;;;3.22;;
61085;SDS011;46967;48.876;2.136;2023-03-31T04:50:55;25.10;;;4.32;;
61085;SDS011;46967;48.876;2.136;2023-03-31T04:53:20;18.02;;;3.45;;
61085;SDS011;46967;48.876;2.136;2023-03-31T04:55:47;27.48;;;4.10;;
61085;SDS011;46967;48.876;2.136;2023-03-31T04:58:13;19.70;;;3.35;;
61085;SDS011;46967;48.876;2.136;2023-03-31T05:00:38;22.50;;;3.95;;
61085;SDS011;46967;48.876;2.136;2023-03-31T05:03:03;23.90;;;3.35;;
61085;SDS011;46967;48.876;2.136;2023-03-31T05:05:29;27.08;;;4.50;;
61085;SDS011;46967;48.876;2.136;2023-03-31T05:07:54;24.95;;;6.32;;
61085;SDS011;46967;48.876;2.136;2023-03-31T05:10:20;26.58;;;4.43;;
61085;SDS011;46967;48.876;2.136;2023-03-31T05:12:45;25.08;;;4.32;;
61085;SDS011;46967;48.876;2.136;2023-03-31T05:15:11;19.05;;;3.55;;
61085;SDS011;46967;48.876;2.136;2023-03-31T05:17:36;25.42;;;4.15;;
61085;SDS011;46967;48.876;2.136;2023-03-31T05:20:02;24.80;;;3.92;;
61085;SDS011;46967;48.876;2.136;2023-03-31T05:22:35;21.27;;;4.60;;
61085;SDS011;46967;48.876;2.136;2023-03-31T05:25:02;19.95;;;4.03;;
61085;SDS011;46967;48.876;2.136;2023-03-31T05:27:29;25.80;;;4.40;;
61085;SDS011;46967;48.876;2.136;2023-03-31T05:29:54;25.88;;;5.07;;
61085;SDS011;46967;48.876;2.136;2023-03-31T05:32:20;24.45;;;4.38;;
61085;SDS011;46967;48.876;2.136;2023-03-31T05:34:45;21.85;;;4.03;;
61085;SDS011;46967;48.876;2.136;2023-03-31T05:37:10;24.20;;;4.30;;
61085;SDS011;46967;48.876;2.136;2023-03-31T05:39:36;27.80;;;4.40;;
61085;SDS011;46967;48.876;2.136;2023-03-31T05:42:01;29.45;;;3.58;;
61085;SDS011;46967;48.876;2.136;2023-03-31T05:44:27;31.10;;;3.92;;
61085;SDS011;46967;48.876;2.136;2023-03-31T05:46:52;28.33;;;5.05;;
61085;SDS011;46967;48.876;2.136;2023-03-31T05:49:18;21.15;;;3.60;;
61085;SDS011;46967;48.876;2.136;2023-03-31T05:51:44;23.65;;;3.95;;
61085;SDS011;46967;48.876;2.136;2023-03-31T05:54:09;26.40;;;4.80;;
61085;SDS011;46967;48.876;2.136;2023-03-31T05:56:35;27.25;;;4.70;;
61085;SDS011;46967;48.876;2.136;2023-03-31T05:59:00;19.70;;;3.55;;
61085;SDS011;46967;48.876;2.136;2023-03-31T06:01:26;22.08;;;4.32;;
61085;SDS011;46967;48.876;2.136;2023-03-31T06:03:51;22.20;;;4.05;;
61085;SDS011;46967;48.876;2.136;2023-03-31T06:06:17;29.75;;;5.43;;
61085;SDS011;46967;48.876;2.136;2023-03-31T06:08:43;27.13;;;4.70;;
61085;SDS011;46967;48.876;2.136;2023-03-31T06:11:12;31.38;;;4.45;;
61085;SDS011;46967;48.876;2.136;2023-03-31T06:13:43;18.10;;;3.95;;
61085;SDS011;46967;48.876;2.136;2023-03-31T06:16:10;31.00;;;4.60;;
61085;SDS011;46967;48.876;2.136;2023-03-31T06:18:37;24.00;;;4.20;;
61085;SDS011;46967;48.876;2.136;2023-03-31T06:21:03;21.02;;;3.72;;
61085;SDS011;46967;48.876;2.136;2023-03-31T06:23:28;28.48;;;4.88;;
61085;SDS011;46967;48.876;2.136;2023-03-31T06:25:57;21.13;;;4.07;;
61085;SDS011;46967;48.876;2.136;2023-03-31T06:28:25;24.95;;;4.53;;
61085;SDS011;46967;48.876;2.136;2023-03-31T06:30:58;22.35;;;4.10;;
61085;SDS011;46967;48.876;2.136;2023-03-31T06:33:26;23.95;;;4.15;;
61085;SDS011;46967;48.876;2.136;2023-03-31T06:35:53;26.95;;;3.97;;
61085;SDS011;46967;48.876;2.136;2023-03-31T06:38:20;36.00;;;4.22;;
61085;SDS011;46967;48.876;2.136;2023-03-31T06:40:45;25.17;;;4.55;;
61085;SDS011;46967;48.876;2.136;2023-03-31T06:43:11;25.33;;;4.72;;
61085;SDS011;46967;48.876;2.136;2023-03-31T06:45:36;21.67;;;3.92;;
61085;SDS011;46967;48.876;2.136;2023-03-31T06:48:01;21.90;;;4.18;;
61085;SDS011;46967;48.876;2.136;2023-03-31T06:50:26;28.15;;;4.82;;
61085;SDS011;46967;48.876;2.136;2023-03-31T06:52:52;23.63;;;3.33;;
61085;SDS011;46967;48.876;2.136;2023-03-31T06:55:19;23.98;;;4.07;;
61085;SDS011;46967;48.876;2.136;2023-03-31T06:57:44;21.80;;;3.85;;
61085;SDS011;46967;48.876;2.136;2023-03-31T07:00:10;20.33;;;3.63;;
61085;SDS011;46967;48.876;2.136;2023-03-31T07:02:36;18.52;;;3.78;;
61085;SDS011;46967;48.876;2.136;2023-03-31T07:05:01;23.77;;;3.85;;
61085;SDS011;46967;48.876;2.136;2023-03-31T07:07:29;21.70;;;3.80;;
61085;SDS011;46967;48.876;2.136;2023-03-31T07:09:55;19.70;;;4.00;;
61085;SDS011;46967;48.876;2.136;2023-03-31T07:12:21;21.05;;;3.55;;
61085;SDS011;46967;48.876;2.136;2023-03-31T07:14:46;19.80;;;4.15;;
61085;SDS011;46967;48.876;2.136;2023-03-31T07:17:11;22.35;;;3.03;;
61085;SDS011;46967;48.876;2.136;2023-03-31T07:19:37;14.48;;;2.58;;
61085;SDS011;46967;48.876;2.136;2023-03-31T07:22:05;19.27;;;3.13;;
61085;SDS011;46967;48.876;2.136;2023-03-31T07:24:31;17.58;;;2.85;;
61085;SDS011;46967;48.876;2.136;2023-03-31T07:26:56;16.50;;;3.17;;
61085;SDS011;46967;48.876;2.136;2023-03-31T07:29:22;16.95;;;3.00;;
61085;SDS011;46967;48.876;2.136;2023-03-31T07:31:47;17.58;;;3.17;;
61085;SDS011;46967;48.876;2.136;2023-03-31T07:34:12;17.00;;;3.42;;
61085;SDS011;46967;48.876;2.136;2023-03-31T07:36:38;14.68;;;2.78;;
61085;SDS011;46967;48.876;2.136;2023-03-31T07:39:04;16.92;;;2.90;;
61085;SDS011;46967;48.876;2.136;2023-03-31T07:41:30;21.25;;;2.85;;
61085;SDS011;46967;48.876;2.136;2023-03-31T07:43:56;18.33;;;2.75;;
61085;SDS011;46967;48.876;2.136;2023-03-31T07:46:22;16.38;;;3.03;;
61085;SDS011;46967;48.876;2.136;2023-03-31T07:48:49;16.30;;;2.90;;
61085;SDS011;46967;48.876;2.136;2023-03-31T07:51:17;16.58;;;3.53;;
61085;SDS011;46967;48.876;2.136;2023-03-31T07:53:44;19.23;;;3.40;;
61085;SDS011;46967;48.876;2.136;2023-03-31T07:56:10;15.38;;;3.17;;
61085;SDS011;46967;48.876;2.136;2023-03-31T07:58:36;14.88;;;3.10;;
61085;SDS011;46967;48.876;2.136;2023-03-31T08:01:02;16.45;;;4.13;;
61085;SDS011;46967;48.876;2.136;2023-03-31T08:03:28;16.83;;;3.25;;
61085;SDS011;46967;48.876;2.136;2023-03-31T08:05:53;18.52;;;2.90;;
61085;SDS011;46967;48.876;2.136;2023-03-31T08:08:20;21.88;;;3.30;;
61085;SDS011;46967;48.876;2.136;2023-03-31T08:10:46;11.50;;;2.72;;
61085;SDS011;46967;48.876;2.136;2023-03-31T08:13:12;18.90;;;2.95;;
61085;SDS011;46967;48.876;2.136;2023-03-31T08:15:37;14.13;;;3.70;;
61085;SDS011;46967;48.876;2.136;2023-03-31T08:18:03;19.15;;;3.67;;
61085;SDS011;46967;48.876;2.136;2023-03-31T08:20:28;18.52;;;3.58;;
61085;SDS011;46967;48.876;2.136;2023-03-31T08:22:54;20.75;;;3.45;;
61085;SDS011;46967;48.876;2.136;2023-03-31T08:25:19;16.52;;;3.03;;
61085;SDS011;46967;48.876;2.136;2023-03-31T08:27:45;22.60;;;3.40;;
61085;SDS011;46967;48.876;2.136;2023-03-31T08:30:12;21.20;;;3.65;;
61085;SDS011;46967;48.876;2.136;2023-03-31T08:32:38;26.73;;;3.70;;
61085;SDS011;46967;48.876;2.136;2023-03-31T08:35:04;18.55;;;3.45;;
61085;SDS011;46967;48.876;2.136;2023-03-31T08:37:29;15.35;;;2.90;;
61085;SDS011;46967;48.876;2.136;2023-03-31T08:39:56;15.93;;;3.33;;
61085;SDS011;46967;48.876;2.136;2023-03-31T08:45:16;18.77;;;3.92;;
61085;SDS011;46967;48.876;2.136;2023-03-31T08:47:46;22.15;;;3.17;;
61085;SDS011;46967;48.876;2.136;2023-03-31T08:50:16;17.55;;;3.50;;
61085;SDS011;46967;48.876;2.136;2023-03-31T08:53:09;20.15;;;3.80;;
61085;SDS011;46967;48.876;2.136;2023-03-31T08:55:48;21.70;;;3.53;;
61085;SDS011;46967;48.876;2.136;2023-03-31T08:58:33;14.77;;;2.67;;
61085;SDS011;46967;48.876;2.136;2023-03-31T09:06:51;19.85;;;3.50;;
61085;SDS011;46967;48.876;2.136;2023-03-31T09:11:57;18.08;;;3.67;;
61085;SDS011;46967;48.876;2.136;2023-03-31T09:14:38;16.02;;;3.40;;
61085;SDS011;46967;48.876;2.136;2023-03-31T09:17:20;20.02;;;3.45;;
61085;SDS011;46967;48.876;2.136;2023-03-31T09:19:57;17.30;;;3.28;;
61085;SDS011;46967;48.876;2.136;2023-03-31T09:22:32;20.80;;;3.28;;
61085;SDS011;46967;48.876;2.136;2023-03-31T09:25:03;18.13;;;2.58;;
61085;SDS011;46967;48.876;2.136;2023-03-31T09:27:32;14.95;;;2.47;;
61085;SDS011;46967;48.876;2.136;2023-03-31T09:30:09;16.52;;;3.10;;
61085;SDS011;46967;48.876;2.136;2023-03-31T09:32:39;19.42;;;2.63;;
61085;SDS011;46967;48.876;2.136;2023-03-31T09:35:13;14.63;;;2.60;;
61085;SDS011;46967;48.876;2.136;2023-03-31T09:37:41;20.52;;;3.08;;
61085;SDS011;46967;48.876;2.136;2023-03-31T09:40:12;16.40;;;2.78;;
61085;SDS011;46967;48.876;2.136;2023-03-31T09:42:42;17.13;;;2.95;;
61085;SDS011;46967;48.876;2.136;2023-03-31T09:45:16;15.65;;;2.83;;
61085;SDS011;46967;48.876;2.136;2023-03-31T09:47:44;13.40;;;3.03;;
61085;SDS011;46967;48.876;2.136;2023-03-31T09:50:14;13.43;;;2.40;;
61085;SDS011;46967;48.876;2.136;2023-03-31T09:52:42;13.18;;;2.53;;
61085;SDS011;46967;48.876;2.136;2023-03-31T09:55:20;14.20;;;3.28;;
61085;SDS011;46967;48.876;2.136;2023-03-31T09:57:48;12.13;;;2.33;;
61085;SDS011;46967;48.876;2.136;2023-03-31T10:00:15;16.10;;;2.78;;
61085;SDS011;46967;48.876;2.136;2023-03-31T10:03:03;18.02;;;3.38;;
61085;SDS011;46967;48.876;2.136;2023-03-31T10:05:32;15.88;;;2.58;;
61085;SDS011;46967;48.876;2.136;2023-03-31T10:10:57;15.70;;;2.70;;
61085;SDS011;46967;48.876;2.136;2023-03-31T10:13:43;17.67;;;2.95;;
61085;SDS011;46967;48.876;2.136;2023-03-31T10:16:34;13.27;;;2.40;;
61085;SDS011;46967;48.876;2.136;2023-03-31T10:21:59;14.82;;;2.30;;
61085;SDS011;46967;48.876;2.136;2023-03-31T10:24:37;12.27;;;1.77;;
61085;SDS011;46967;48.876;2.136;2023-03-31T10:27:04;11.25;;;2.53;;
61085;SDS011;46967;48.876;2.136;2023-03-31T10:29:45;11.82;;;2.05;;
61085;SDS011;46967;48.876;2.136;2023-03-31T10:34:47;15.18;;;2.47;;
61085;SDS011;46967;48.876;2.136;2023-03-31T10:37:14;11.90;;;2.35;;
61085;SDS011;46967;48.876;2.136;2023-03-31T10:39:43;11.10;;;2.45;;
61085;SDS011;46967;48.876;2.136;2023-03-31T10:42:17;13.10;;;2.53;;
61085;SDS011;46967;48.876;2.136;2023-03-31T10:44:45;10.82;;;1.83;;
61085;SDS011;46967;48.876;2.136;2023-03-31T10:49:47;12.25;;;2.60;;
61085;SDS011;46967;48.876;2.136;2023-03-31T10:52:14;11.80;;;2.10;;
61085;SDS011;46967;48.876;2.136;2023-03-31T10:54:50;12.20;;;2.25;;
61085;SDS011;46967;48.876;2.136;2023-03-31T10:57:19;8.73;;;1.67;;
61085;SDS011;46967;48.876;2.136;2023-03-31T11:00:00;9.27;;;2.03;;
61085;SDS011;46967;48.876;2.136;2023-03-31T11:11:10;13.60;;;1.90;;
61085;SDS011;46967;48.876;2.136;2023-03-31T11:13:49;12.73;;;2.17;;
61085;SDS011;46967;48.876;2.136;2023-03-31T11:19:10;10.32;;;1.67;;
61085;SDS011;46967;48.876;2.136;2023-03-31T11:24:52;11.00;;;2.08;;
61085;SDS011;46967;48.876;2.136;2023-03-31T11:27:58;14.18;;;2.22;;
61085;SDS011;46967;48.876;2.136;2023-03-31T11:31:08;13.10;;;2.42;;
61085;SDS011;46967;48.876;2.136;2023-03-31T11:33:57;11.77;;;2.47;;
61085;SDS011;46967;48.876;2.136;2023-03-31T11:39:31;10.90;;;2.42;;
61085;SDS011;46967;48.876;2.136;2023-03-31T11:42:02;12.23;;;2.38;;
61085;SDS011;46967;48.876;2.136;2023-03-31T11:44:39;12.38;;;2.38;;
61085;SDS011;46967;48.876;2.136;2023-03-31T11:47:12;14.57;;;2.55;;
61085;SDS011;46967;48.876;2.136;2023-03-31T11:49:46;13.93;;;2.33;;
61085;SDS011;46967;48.876;2.136;2023-03-31T11:52:17;15.32;;;2.90;;
61085;SDS011;46967;48.876;2.136;2023-03-31T11:54:52;12.23;;;2.00;;
61085;SDS011;46967;48.876;2.136;2023-03-31T12:05:09;7.60;;;1.70;;
61085;SDS011;46967;48.876;2.136;2023-03-31T12:15:51;8.32;;;1.98;;
61085;SDS011;46967;48.876;2.136;2023-03-31T12:18:25;8.98;;;2.00;;
61085;SDS011;46967;48.876;2.136;2023-03-31T12:20:58;9.43;;;1.77;;
61085;SDS011;46967;48.876;2.136;2023-03-31T12:23:27;9.45;;;1.60;;
61085;SDS011;46967;48.876;2.136;2023-03-31T12:26:02;7.07;;;1.30;;
61085;SDS011;46967;48.876;2.136;2023-03-31T12:28:36;9.32;;;1.40;;
61085;SDS011;46967;48.876;2.136;2023-03-31T12:31:04;9.20;;;1.63;;
61085;SDS011;46967;48.876;2.136;2023-03-31T12:34:17;6.25;;;1.95;;
61085;SDS011;46967;48.876;2.136;2023-03-31T12:37:15;9.20;;;1.88;;
61085;SDS011;46967;48.876;2.136;2023-03-31T12:50:35;6.03;;;1.20;;
61085;SDS011;46967;48.876;2.136;2023-03-31T12:55:57;5.15;;;1.13;;
61085;SDS011;46967;48.876;2.136;2023-03-31T13:01:01;12.30;;;1.50;;
61085;SDS011;46967;48.876;2.136;2023-03-31T13:05:58;9.63;;;1.27;;
61085;SDS011;46967;48.876;2.136;2023-03-31T13:11:17;7.60;;;1.27;;
61085;SDS011;46967;48.876;2.136;2023-03-31T13:16:43;7.57;;;1.45;;
61085;SDS011;46967;48.876;2.136;2023-03-31T13:19:31;5.55;;;1.38;;
61085;SDS011;46967;48.876;2.136;2023-03-31T13:22:00;6.95;;;1.90;;
61085;SDS011;46967;48.876;2.136;2023-03-31T13:24:28;5.72;;;1.38;;
61085;SDS011;46967;48.876;2.136;2023-03-31T13:26:55;5.35;;;1.27;;
61085;SDS011;46967;48.876;2.136;2023-03-31T13:29:41;8.40;;;2.38;;
61085;SDS011;46967;48.876;2.136;2023-03-31T13:32:16;6.60;;;1.40;;
61085;SDS011;46967;48.876;2.136;2023-03-31T13:40:29;6.40;;;1.40;;
61085;SDS011;46967;48.876;2.136;2023-03-31T13:51:58;3.53;;;0.77;;
61085;SDS011;46967;48.876;2.136;2023-03-31T14:00:02;4.28;;;0.82;;
61085;SDS011;46967;48.876;2.136;2023-03-31T14:07:58;6.85;;;0.90;;
61085;SDS011;46967;48.876;2.136;2023-03-31T14:10:36;2.83;;;0.80;;
61085;SDS011;46967;48.876;2.136;2023-03-31T14:15:32;4.45;;;0.75;;
61085;SDS011;46967;48.876;2.136;2023-03-31T14:18:00;5.90;;;0.88;;
61085;SDS011;46967;48.876;2.136;2023-03-31T14:20:32;4.05;;;0.90;;
61085;SDS011;46967;48.876;2.136;2023-03-31T14:26:02;7.15;;;1.30;;
61085;SDS011;46967;48.876;2.136;2023-03-31T14:33:42;7.95;;;1.48;;
61085;SDS011;46967;48.876;2.136;2023-03-31T14:39:11;7.15;;;1.40;;
61085;SDS011;46967;48.876;2.136;2023-03-31T14:41:42;7.40;;;1.02;;
61085;SDS011;46967;48.876;2.136;2023-03-31T14:44:10;7.55;;;1.42;;
61085;SDS011;46967;48.876;2.136;2023-03-31T14:46:39;9.05;;;1.52;;
61085;SDS011;46967;48.876;2.136;2023-03-31T14:49:20;9.40;;;1.30;;
61085;SDS011;46967;48.876;2.136;2023-03-31T14:51:52;8.60;;;0.98;;
61085;SDS011;46967;48.876;2.136;2023-03-31T14:54:19;4.35;;;1.10;;
61085;SDS011;46967;48.876;2.136;2023-03-31T14:56:47;4.40;;;0.98;;
61085;SDS011;46967;48.876;2.136;2023-03-31T14:59:23;5.65;;;1.10;;
61085;SDS011;46967;48.876;2.136;2023-03-31T15:01:51;6.43;;;1.30;;
61085;SDS011;46967;48.876;2.136;2023-03-31T15:04:21;2.70;;;0.90;;
61085;SDS011;46967;48.876;2.136;2023-03-31T15:06:49;5.63;;;0.70;;
61085;SDS011;46967;48.876;2.136;2023-03-31T15:09:23;5.95;;;1.00;;
61085;SDS011;46967;48.876;2.136;2023-03-31T15:11:53;6.97;;;1.30;;
61085;SDS011;46967;48.876;2.136;2023-03-31T15:14:27;5.63;;;1.67;;
61085;SDS011;46967;48.876;2.136;2023-03-31T15:16:54;8.18;;;1.23;;
61085;SDS011;46967;48.876;2.136;2023-03-31T15:19:21;9.13;;;1.27;;
61085;SDS011;46967;48.876;2.136;2023-03-31T15:21:53;3.67;;;0.80;;
61085;SDS011;46967;48.876;2.136;2023-03-31T15:24:30;2.92;;;0.70;;
61085;SDS011;46967;48.876;2.136;2023-03-31T15:26:56;6.20;;;1.30;;
61085;SDS011;46967;48.876;2.136;2023-03-31T15:34:51;4.63;;;0.95;;
61085;SDS011;46967;48.876;2.136;2023-03-31T15:37:22;4.80;;;0.95;;
61085;SDS011;46967;48.876;2.136;2023-03-31T15:39:51;6.35;;;1.27;;
61085;SDS011;46967;48.876;2.136;2023-03-31T15:42:21;5.38;;;1.83;;
61085;SDS011;46967;48.876;2.136;2023-03-31T15:44:47;7.45;;;1.10;;
61085;SDS011;46967;48.876;2.136;2023-03-31T15:52:19;9.77;;;1.30;;
61085;SDS011;46967;48.876;2.136;2023-03-31T15:54:45;6.40;;;1.10;;
61085;SDS011;46967;48.876;2.136;2023-03-31T15:57:13;5.95;;;1.10;;
61085;SDS011;46967;48.876;2.136;2023-03-31T16:02:10;6.45;;;1.20;;
61085;SDS011;46967;48.876;2.136;2023-03-31T16:04:39;4.20;;;1.40;;
61085;SDS011;46967;48.876;2.136;2023-03-31T16:07:06;2.95;;;1.00;;
61085;SDS011;46967;48.876;2.136;2023-03-31T16:09:47;4.63;;;0.88;;
61085;SDS011;46967;48.876;2.136;2023-03-31T16:14:58;5.00;;;1.13;;
61085;SDS011;46967;48.876;2.136;2023-03-31T16:17:51;6.22;;;0.90;;
61085;SDS011;46967;48.876;2.136;2023-03-31T16:20:26;3.33;;;0.90;;
61085;SDS011;46967;48.876;2.136;2023-03-31T16:22:56;4.57;;;0.90;;
61085;SDS011;46967;48.876;2.136;2023-03-31T16:25:23;3.65;;;0.93;;
61085;SDS011;46967;48.876;2.136;2023-03-31T16:27:53;5.57;;;1.30;;
61085;SDS011;46967;48.876;2.136;2023-03-31T16:30:21;3.63;;;1.38;;
61085;SDS011;46967;48.876;2.136;2023-03-31T16:33:01;7.78;;;2.47;;
61085;SDS011;46967;48.876;2.136;2023-03-31T16:35:30;6.47;;;1.42;;
61085;SDS011;46967;48.876;2.136;2023-03-31T16:37:57;7.72;;;1.10;;
61085;SDS011;46967;48.876;2.136;2023-03-31T16:40:22;6.10;;;1.00;;
61085;SDS011;46967;48.876;2.136;2023-03-31T16:42:48;6.45;;;1.08;;
61085;SDS011;46967;48.876;2.136;2023-03-31T16:45:29;4.05;;;1.20;;
61085;SDS011;46967;48.876;2.136;2023-03-31T16:47:55;4.68;;;1.00;;
61085;SDS011;46967;48.876;2.136;2023-03-31T16:50:20;7.95;;;1.48;;
61085;SDS011;46967;48.876;2.136;2023-03-31T16:52:45;6.30;;;1.60;;
61085;SDS011;46967;48.876;2.136;2023-03-31T16:55:11;9.20;;;1.80;;
61085;SDS011;46967;48.876;2.136;2023-03-31T16:57:36;5.68;;;1.25;;
61085;SDS011;46967;48.876;2.136;2023-03-31T17:00:01;5.43;;;1.08;;
61085;SDS011;46967;48.876;2.136;2023-03-31T17:02:27;6.97;;;1.80;;
61085;SDS011;46967;48.876;2.136;2023-03-31T17:04:52;5.90;;;1.20;;
61085;SDS011;46967;48.876;2.136;2023-03-31T17:07:18;6.60;;;2.33;;
61085;SDS011;46967;48.876;2.136;2023-03-31T17:09:43;5.50;;;1.17;;
61085;SDS011;46967;48.876;2.136;2023-03-31T17:12:08;7.22;;;1.15;;
61085;SDS011;46967;48.876;2.136;2023-03-31T17:14:34;6.60;;;1.40;;
61085;SDS011;46967;48.876;2.136;2023-03-31T17:16:59;5.80;;;1.38;;
61085;SDS011;46967;48.876;2.136;2023-03-31T17:19:25;7.15;;;1.45;;
61085;SDS011;46967;48.876;2.136;2023-03-31T17:21:51;3.90;;;1.00;;
61085;SDS011;46967;48.876;2.136;2023-03-31T17:24:16;9.43;;;2.72;;
61085;SDS011;46967;48.876;2.136;2023-03-31T17:26:42;5.95;;;1.50;;
61085;SDS011;46967;48.876;2.136;2023-03-31T17:29:07;8.40;;;1.58;;
61085;SDS011;46967;48.876;2.136;2023-03-31T17:31:33;9.05;;;1.50;;
61085;SDS011;46967;48.876;2.136;2023-03-31T17:33:58;6.55;;;1.40;;
61085;SDS011;46967;48.876;2.136;2023-03-31T17:36:24;8.00;;;1.17;;
61085;SDS011;46967;48.876;2.136;2023-03-31T17:38:49;5.80;;;1.40;;
61085;SDS011;46967;48.876;2.136;2023-03-31T17:41:14;9.55;;;1.45;;
61085;SDS011;46967;48.876;2.136;2023-03-31T17:43:45;8.10;;;1.85;;
61085;SDS011;46967;48.876;2.136;2023-03-31T17:46:11;7.30;;;2.05;;
61085;SDS011;46967;48.876;2.136;2023-03-31T17:48:37;13.18;;;1.95;;
61085;SDS011;46967;48.876;2.136;2023-03-31T17:51:21;11.70;;;1.77;;
61085;SDS011;46967;48.876;2.136;2023-03-31T17:53:47;7.03;;;1.80;;
61085;SDS011;46967;48.876;2.136;2023-03-31T17:56:13;10.50;;;2.05;;
61085;SDS011;46967;48.876;2.136;2023-03-31T17:58:40;13.82;;;3.15;;